createdAt,value
2017-03-20T00:08:08.171Z,13
2017-03-20T00:18:08.944Z,14
2017-03-20T00:28:08.131Z,14
2017-03-20T00:38:08.215Z,15
2017-03-20T00:48:08.185Z,16
2017-03-20T00:58:08.245Z,16
2017-03-20T01:08:08.334Z,16
2017-03-20T01:18:08.336Z,16
2017-03-20T01:28:08.322Z,16
2017-03-20T01:38:08.375Z,17
2017-03-20T01:48:08.317Z,17
2017-03-20T01:58:08.261Z,17
2017-03-20T02:08:08.355Z,19
2017-03-20T02:18:08.235Z,16
2017-03-20T02:28:08.333Z,20
2017-03-20T02:38:08.279Z,17
2017-03-20T02:48:08.407Z,19
2017-03-20T02:58:08.989Z,18
2017-03-20T03:08:08.413Z,19
2017-03-20T03:18:08.311Z,18
2017-03-20T03:28:08.365Z,19
2017-03-20T03:38:08.315Z,19
2017-03-20T03:48:08.387Z,18
2017-03-20T03:58:08.350Z,16
2017-03-20T04:08:08.522Z,15
2017-03-20T04:18:08.352Z,13
2017-03-20T04:28:08.293Z,16
2017-03-20T04:38:08.368Z,14
2017-03-20T04:48:08.343Z,13
2017-03-20T04:58:08.423Z,12
2017-03-20T05:08:08.354Z,13
2017-03-20T05:18:08.461Z,11
2017-03-20T05:28:13.002Z,12
2017-03-20T05:38:08.470Z,12
2017-03-20T05:48:27.174Z,13
2017-03-20T05:58:08.501Z,13
2017-03-20T06:08:08.431Z,12
2017-03-20T06:18:08.510Z,11
2017-03-20T06:28:08.533Z,12
2017-03-20T06:38:26.129Z,15
2017-03-20T06:48:08.476Z,13
2017-03-20T06:58:08.403Z,13
2017-03-20T07:08:08.589Z,14
2017-03-20T07:18:08.538Z,14
2017-03-20T07:28:08.579Z,15
2017-03-20T07:38:08.473Z,14
2017-03-20T07:48:09.224Z,14
2017-03-20T07:58:09.988Z,14
2017-03-20T08:08:08.758Z,20
2017-03-20T08:18:09.119Z,19
2017-03-20T08:28:09.328Z,25
2017-03-20T08:38:08.604Z,26
2017-03-20T08:48:09.546Z,21
2017-03-20T08:58:08.977Z,21
2017-03-20T09:08:08.556Z,18
2017-03-20T09:18:08.576Z,19
2017-03-20T09:28:08.600Z,20
2017-03-20T09:38:08.671Z,17
2017-03-20T09:48:08.780Z,20
2017-03-20T09:58:09.315Z,21
2017-03-20T10:08:08.592Z,20
2017-03-20T10:18:08.603Z,18
2017-03-20T10:28:10.214Z,16
2017-03-20T10:38:08.665Z,12
2017-03-20T10:48:08.703Z,12
2017-03-20T10:58:08.617Z,12
2017-03-20T11:08:08.697Z,14
2017-03-20T11:18:08.726Z,12
2017-03-20T11:28:08.717Z,12
2017-03-20T11:38:08.663Z,12
2017-03-20T11:48:08.724Z,14
2017-03-20T11:58:08.798Z,17
2017-03-20T12:08:08.770Z,18
2017-03-20T12:18:26.717Z,15
2017-03-20T12:28:12.434Z,14
2017-03-20T12:38:08.945Z,10
2017-03-20T12:48:08.823Z,9
2017-03-20T12:58:09.015Z,8
2017-03-20T13:08:09.785Z,9
2017-03-20T13:18:08.954Z,7
2017-03-20T13:28:08.872Z,6
2017-03-20T13:38:09.232Z,6
2017-03-20T13:48:08.844Z,5
2017-03-20T13:58:08.955Z,4
2017-03-20T14:08:08.908Z,4
2017-03-20T14:18:09.034Z,3
2017-03-20T14:28:08.991Z,3
2017-03-20T14:38:08.985Z,3
2017-03-20T14:48:09.045Z,4
2017-03-20T14:58:09.274Z,4
2017-03-20T15:08:08.978Z,5
2017-03-20T15:18:09.036Z,7
2017-03-20T15:28:09.127Z,5
2017-03-20T15:38:08.993Z,6
2017-03-20T15:48:09.050Z,4
2017-03-20T15:58:09.977Z,4
2017-03-20T16:08:09.032Z,5
2017-03-20T16:18:09.868Z,6
2017-03-20T16:28:09.173Z,6
2017-03-20T16:38:09.061Z,6
2017-03-20T16:48:09.404Z,5
2017-03-20T16:58:09.117Z,5
2017-03-20T17:08:09.259Z,6
2017-03-20T17:18:09.068Z,6
2017-03-20T17:28:09.157Z,7
2017-03-20T17:38:09.325Z,7
2017-03-20T17:48:09.104Z,5
2017-03-20T17:58:09.245Z,5
2017-03-20T18:08:09.410Z,6
2017-03-20T18:18:10.339Z,5
2017-03-20T18:28:09.777Z,5
2017-03-20T18:38:09.873Z,6
2017-03-20T18:48:09.756Z,7
2017-03-20T18:58:09.546Z,8
2017-03-20T19:08:09.733Z,10
2017-03-20T19:18:09.450Z,12
2017-03-20T19:28:09.533Z,14
2017-03-20T19:38:09.505Z,14
2017-03-20T19:48:10.286Z,17
2017-03-20T19:58:09.645Z,15
2017-03-20T20:08:09.645Z,14
2017-03-20T20:18:09.829Z,11
2017-03-20T20:28:09.699Z,10
2017-03-20T20:38:09.774Z,11
2017-03-20T20:48:09.645Z,12
2017-03-20T20:58:09.691Z,11
2017-03-20T21:08:09.787Z,13
2017-03-20T21:28:30.037Z,16
2017-03-20T21:38:30.197Z,11
2017-03-20T21:48:30.136Z,13
2017-03-20T21:58:30.128Z,11
2017-03-20T22:08:30.354Z,10
2017-03-20T22:18:30.083Z,11
2017-03-20T22:28:30.058Z,10
2017-03-20T22:38:30.032Z,11
2017-03-20T22:48:29.994Z,13
2017-03-20T22:58:30.401Z,12
2017-03-20T23:08:30.153Z,10
2017-03-20T23:18:30.307Z,10
2017-03-20T23:28:30.159Z,10
2017-03-20T23:38:30.630Z,10
2017-03-20T23:48:30.125Z,11
2017-03-20T23:58:30.175Z,10
